sensor_id;sensor_type;location;lat;lon;timestamp;P1;durP1;ratioP1;P2;durP2;ratioP2
9117;SDS011;4594;50.994;7.126;2023-07-24T00:00:42;2.57;;;2.47;;
9117;SDS011;4594;50.994;7.126;2023-07-24T00:03:07;2.23;;;2.13;;
9117;SDS011;4594;50.994;7.126;2023-07-24T00:05:33;2.63;;;2.53;;
9117;SDS011;4594;50.994;7.126;2023-07-24T00:07:59;2.47;;;2.37;;
9117;SDS011;4594;50.994;7.126;2023-07-24T00:10:25;2.50;;;2.40;;
9117;SDS011;4594;50.994;7.126;2023-07-24T00:12:51;2.50;;;2.30;;
9117;SDS011;4594;50.994;7.126;2023-07-24T00:15:16;2.20;;;2.10;;
9117;SDS011;4594;50.994;7.126;2023-07-24T00:17:42;2.80;;;2.60;;
9117;SDS011;4594;50.994;7.126;2023-07-24T00:20:08;2.60;;;2.40;;
9117;SDS011;4594;50.994;7.126;2023-07-24T00:22:34;2.47;;;2.37;;
9117;SDS011;4594;50.994;7.126;2023-07-24T00:25:00;2.50;;;2.33;;
9117;SDS011;4594;50.994;7.126;2023-07-24T00:27:25;2.60;;;2.43;;
9117;SDS011;4594;50.994;7.126;2023-07-24T00:29:52;2.30;;;2.10;;
9117;SDS011;4594;50.994;7.126;2023-07-24T00:32:18;2.57;;;2.33;;
9117;SDS011;4594;50.994;7.126;2023-07-24T00:34:43;2.37;;;2.27;;
9117;SDS011;4594;50.994;7.126;2023-07-24T00:37:09;2.33;;;2.23;;
9117;SDS011;4594;50.994;7.126;2023-07-24T00:39:35;2.23;;;2.03;;
9117;SDS011;4594;50.994;7.126;2023-07-24T00:42:01;2.87;;;2.70;;
9117;SDS011;4594;50.994;7.126;2023-07-24T00:44:27;2.50;;;2.30;;
9117;SDS011;4594;50.994;7.126;2023-07-24T00:46:52;2.50;;;2.30;;
9117;SDS011;4594;50.994;7.126;2023-07-24T00:49:19;2.83;;;2.70;;
9117;SDS011;4594;50.994;7.126;2023-07-24T00:51:46;2.73;;;2.53;;
9117;SDS011;4594;50.994;7.126;2023-07-24T00:54:12;2.33;;;2.23;;
9117;SDS011;4594;50.994;7.126;2023-07-24T00:56:41;2.97;;;2.70;;
9117;SDS011;4594;50.994;7.126;2023-07-24T00:59:07;2.60;;;2.40;;
9117;SDS011;4594;50.994;7.126;2023-07-24T01:01:33;3.53;;;2.37;;
9117;SDS011;4594;50.994;7.126;2023-07-24T01:04:00;2.30;;;2.20;;
9117;SDS011;4594;50.994;7.126;2023-07-24T01:06:29;2.53;;;2.33;;
9117;SDS011;4594;50.994;7.126;2023-07-24T01:08:54;2.40;;;2.30;;
9117;SDS011;4594;50.994;7.126;2023-07-24T01:11:27;3.10;;;2.90;;
9117;SDS011;4594;50.994;7.126;2023-07-24T01:14:17;2.17;;;2.10;;
9117;SDS011;4594;50.994;7.126;2023-07-24T01:16:55;2.20;;;2.10;;
9117;SDS011;4594;50.994;7.126;2023-07-24T01:28:07;2.60;;;2.50;;
9117;SDS011;4594;50.994;7.126;2023-07-24T01:30:33;2.63;;;2.43;;
9117;SDS011;4594;50.994;7.126;2023-07-24T01:32:59;2.30;;;2.20;;
9117;SDS011;4594;50.994;7.126;2023-07-24T01:35:24;2.63;;;2.47;;
9117;SDS011;4594;50.994;7.126;2023-07-24T01:37:52;3.17;;;3.00;;
9117;SDS011;4594;50.994;7.126;2023-07-24T01:40:22;2.47;;;2.37;;
9117;SDS011;4594;50.994;7.126;2023-07-24T01:42:49;2.83;;;2.63;;
9117;SDS011;4594;50.994;7.126;2023-07-24T01:45:15;2.87;;;2.67;;
9117;SDS011;4594;50.994;7.126;2023-07-24T01:47:41;2.57;;;2.47;;
9117;SDS011;4594;50.994;7.126;2023-07-24T01:50:07;2.80;;;2.57;;
9117;SDS011;4594;50.994;7.126;2023-07-24T01:52:33;2.33;;;2.23;;
9117;SDS011;4594;50.994;7.126;2023-07-24T01:54:58;2.97;;;2.77;;
9117;SDS011;4594;50.994;7.126;2023-07-24T01:57:24;3.27;;;2.40;;
9117;SDS011;4594;50.994;7.126;2023-07-24T01:59:50;2.57;;;2.47;;
9117;SDS011;4594;50.994;7.126;2023-07-24T02:02:15;3.07;;;2.83;;
9117;SDS011;4594;50.994;7.126;2023-07-24T02:04:41;2.80;;;2.60;;
9117;SDS011;4594;50.994;7.126;2023-07-24T02:07:07;2.97;;;2.77;;
9117;SDS011;4594;50.994;7.126;2023-07-24T02:09:33;4.50;;;2.43;;
9117;SDS011;4594;50.994;7.126;2023-07-24T02:11:58;2.83;;;2.53;;
9117;SDS011;4594;50.994;7.126;2023-07-24T02:14:24;2.60;;;2.40;;
9117;SDS011;4594;50.994;7.126;2023-07-24T02:16:51;2.67;;;2.53;;
9117;SDS011;4594;50.994;7.126;2023-07-24T02:19:17;5.63;;;2.80;;
9117;SDS011;4594;50.994;7.126;2023-07-24T02:21:43;2.63;;;2.53;;
9117;SDS011;4594;50.994;7.126;2023-07-24T02:24:08;2.57;;;2.47;;
9117;SDS011;4594;50.994;7.126;2023-07-24T02:26:34;2.87;;;2.77;;
9117;SDS011;4594;50.994;7.126;2023-07-24T02:29:00;4.53;;;2.70;;
9117;SDS011;4594;50.994;7.126;2023-07-24T02:31:25;4.07;;;2.87;;
9117;SDS011;4594;50.994;7.126;2023-07-24T02:33:51;2.70;;;2.60;;
9117;SDS011;4594;50.994;7.126;2023-07-24T02:36:17;3.10;;;2.80;;
9117;SDS011;4594;50.994;7.126;2023-07-24T02:38:42;2.57;;;2.47;;
9117;SDS011;4594;50.994;7.126;2023-07-24T02:41:08;2.77;;;2.57;;
9117;SDS011;4594;50.994;7.126;2023-07-24T02:43:34;4.60;;;3.10;;
9117;SDS011;4594;50.994;7.126;2023-07-24T02:46:00;2.90;;;2.70;;
9117;SDS011;4594;50.994;7.126;2023-07-24T02:48:28;2.93;;;2.73;;
9117;SDS011;4594;50.994;7.126;2023-07-24T02:50:54;3.20;;;3.00;;
9117;SDS011;4594;50.994;7.126;2023-07-24T02:53:20;3.33;;;3.00;;
9117;SDS011;4594;50.994;7.126;2023-07-24T02:55:46;3.60;;;3.30;;
9117;SDS011;4594;50.994;7.126;2023-07-24T02:58:12;5.53;;;2.97;;
9117;SDS011;4594;50.994;7.126;2023-07-24T03:00:39;2.93;;;2.70;;
9117;SDS011;4594;50.994;7.126;2023-07-24T03:03:05;3.23;;;2.93;;
9117;SDS011;4594;50.994;7.126;2023-07-24T03:05:31;5.13;;;2.90;;
9117;SDS011;4594;50.994;7.126;2023-07-24T03:07:59;2.80;;;2.60;;
9117;SDS011;4594;50.994;7.126;2023-07-24T03:10:25;3.40;;;3.13;;
9117;SDS011;4594;50.994;7.126;2023-07-24T03:12:50;3.17;;;2.87;;
9117;SDS011;4594;50.994;7.126;2023-07-24T03:15:16;3.67;;;3.00;;
9117;SDS011;4594;50.994;7.126;2023-07-24T03:17:42;2.97;;;2.77;;
9117;SDS011;4594;50.994;7.126;2023-07-24T03:20:08;3.00;;;2.83;;
9117;SDS011;4594;50.994;7.126;2023-07-24T03:22:40;3.30;;;3.00;;
9117;SDS011;4594;50.994;7.126;2023-07-24T03:25:06;3.03;;;2.83;;
9117;SDS011;4594;50.994;7.126;2023-07-24T03:27:33;3.50;;;3.23;;
9117;SDS011;4594;50.994;7.126;2023-07-24T03:29:59;3.23;;;3.00;;
9117;SDS011;4594;50.994;7.126;2023-07-24T03:32:24;3.07;;;2.87;;
9117;SDS011;4594;50.994;7.126;2023-07-24T03:34:50;3.00;;;2.90;;
9117;SDS011;4594;50.994;7.126;2023-07-24T03:37:16;3.17;;;2.97;;
9117;SDS011;4594;50.994;7.126;2023-07-24T03:39:42;3.00;;;2.80;;
9117;SDS011;4594;50.994;7.126;2023-07-24T03:42:11;3.47;;;3.20;;
9117;SDS011;4594;50.994;7.126;2023-07-24T03:44:40;3.23;;;2.93;;
9117;SDS011;4594;50.994;7.126;2023-07-24T03:47:06;5.97;;;3.40;;
9117;SDS011;4594;50.994;7.126;2023-07-24T03:49:32;3.10;;;2.90;;
9117;SDS011;4594;50.994;7.126;2023-07-24T03:51:58;3.30;;;3.10;;
9117;SDS011;4594;50.994;7.126;2023-07-24T03:54:24;3.77;;;3.33;;
9117;SDS011;4594;50.994;7.126;2023-07-24T03:56:50;3.20;;;2.90;;
9117;SDS011;4594;50.994;7.126;2023-07-24T03:59:15;2.97;;;2.77;;
9117;SDS011;4594;50.994;7.126;2023-07-24T04:01:41;3.57;;;3.23;;
9117;SDS011;4594;50.994;7.126;2023-07-24T04:04:07;3.67;;;3.47;;
9117;SDS011;4594;50.994;7.126;2023-07-24T04:06:32;3.23;;;3.03;;
9117;SDS011;4594;50.994;7.126;2023-07-24T04:08:58;3.57;;;3.27;;
9117;SDS011;4594;50.994;7.126;2023-07-24T04:11:24;3.20;;;3.00;;
9117;SDS011;4594;50.994;7.126;2023-07-24T04:13:49;2.77;;;2.67;;
9117;SDS011;4594;50.994;7.126;2023-07-24T04:16:15;3.70;;;3.40;;
9117;SDS011;4594;50.994;7.126;2023-07-24T04:18:41;4.10;;;3.40;;
9117;SDS011;4594;50.994;7.126;2023-07-24T04:21:06;3.77;;;3.47;;
9117;SDS011;4594;50.994;7.126;2023-07-24T04:23:32;3.30;;;3.03;;
9117;SDS011;4594;50.994;7.126;2023-07-24T04:25:58;2.93;;;2.80;;
9117;SDS011;4594;50.994;7.126;2023-07-24T04:28:24;3.20;;;3.00;;
9117;SDS011;4594;50.994;7.126;2023-07-24T04:30:49;3.87;;;3.57;;
9117;SDS011;4594;50.994;7.126;2023-07-24T04:33:15;3.37;;;3.07;;
9117;SDS011;4594;50.994;7.126;2023-07-24T04:35:40;3.30;;;3.10;;
9117;SDS011;4594;50.994;7.126;2023-07-24T04:38:06;3.63;;;3.33;;
9117;SDS011;4594;50.994;7.126;2023-07-24T04:40:32;3.27;;;3.07;;
9117;SDS011;4594;50.994;7.126;2023-07-24T04:42:58;3.60;;;3.30;;
9117;SDS011;4594;50.994;7.126;2023-07-24T04:45:23;3.50;;;3.20;;
9117;SDS011;4594;50.994;7.126;2023-07-24T04:47:49;3.43;;;3.23;;
9117;SDS011;4594;50.994;7.126;2023-07-24T04:50:15;3.37;;;3.03;;
9117;SDS011;4594;50.994;7.126;2023-07-24T04:52:40;3.57;;;3.27;;
9117;SDS011;4594;50.994;7.126;2023-07-24T04:55:06;3.57;;;3.27;;
9117;SDS011;4594;50.994;7.126;2023-07-24T04:57:32;3.77;;;3.43;;
9117;SDS011;4594;50.994;7.126;2023-07-24T04:59:57;3.37;;;3.13;;
9117;SDS011;4594;50.994;7.126;2023-07-24T05:02:23;5.33;;;3.60;;
9117;SDS011;4594;50.994;7.126;2023-07-24T05:04:49;3.90;;;3.60;;
9117;SDS011;4594;50.994;7.126;2023-07-24T05:07:15;3.97;;;3.53;;
9117;SDS011;4594;50.994;7.126;2023-07-24T05:09:40;3.80;;;3.50;;
9117;SDS011;4594;50.994;7.126;2023-07-24T05:12:06;3.63;;;3.33;;
9117;SDS011;4594;50.994;7.126;2023-07-24T05:14:32;4.40;;;3.90;;
9117;SDS011;4594;50.994;7.126;2023-07-24T05:16:57;4.23;;;3.83;;
9117;SDS011;4594;50.994;7.126;2023-07-24T05:19:23;3.97;;;3.67;;
9117;SDS011;4594;50.994;7.126;2023-07-24T05:21:49;4.23;;;3.37;;
9117;SDS011;4594;50.994;7.126;2023-07-24T05:24:14;4.07;;;3.77;;
9117;SDS011;4594;50.994;7.126;2023-07-24T05:26:41;5.30;;;3.57;;
9117;SDS011;4594;50.994;7.126;2023-07-24T05:29:06;3.83;;;3.53;;
9117;SDS011;4594;50.994;7.126;2023-07-24T05:31:33;5.00;;;3.83;;
9117;SDS011;4594;50.994;7.126;2023-07-24T05:34:00;4.80;;;3.30;;
9117;SDS011;4594;50.994;7.126;2023-07-24T05:36:26;4.10;;;3.70;;
9117;SDS011;4594;50.994;7.126;2023-07-24T05:38:52;4.67;;;3.50;;
9117;SDS011;4594;50.994;7.126;2023-07-24T05:41:18;4.73;;;3.63;;
9117;SDS011;4594;50.994;7.126;2023-07-24T05:43:43;5.30;;;3.47;;
9117;SDS011;4594;50.994;7.126;2023-07-24T05:46:09;4.50;;;4.07;;
9117;SDS011;4594;50.994;7.126;2023-07-24T05:48:35;4.43;;;4.00;;
9117;SDS011;4594;50.994;7.126;2023-07-24T05:51:00;4.23;;;3.83;;
9117;SDS011;4594;50.994;7.126;2023-07-24T05:53:26;3.30;;;3.10;;
9117;SDS011;4594;50.994;7.126;2023-07-24T05:55:58;8.73;;;3.40;;
9117;SDS011;4594;50.994;7.126;2023-07-24T05:58:26;4.47;;;3.70;;
9117;SDS011;4594;50.994;7.126;2023-07-24T06:00:52;4.87;;;3.33;;
9117;SDS011;4594;50.994;7.126;2023-07-24T06:03:18;4.67;;;3.30;;
9117;SDS011;4594;50.994;7.126;2023-07-24T06:05:43;4.63;;;3.00;;
9117;SDS011;4594;50.994;7.126;2023-07-24T06:08:09;4.60;;;3.33;;
9117;SDS011;4594;50.994;7.126;2023-07-24T06:10:36;3.63;;;3.27;;
9117;SDS011;4594;50.994;7.126;2023-07-24T06:13:01;3.73;;;3.40;;
9117;SDS011;4594;50.994;7.126;2023-07-24T06:15:27;4.33;;;3.73;;
9117;SDS011;4594;50.994;7.126;2023-07-24T06:17:53;3.80;;;3.50;;
9117;SDS011;4594;50.994;7.126;2023-07-24T06:20:19;5.37;;;3.80;;
9117;SDS011;4594;50.994;7.126;2023-07-24T06:22:45;3.63;;;3.33;;
9117;SDS011;4594;50.994;7.126;2023-07-24T06:25:10;5.23;;;3.57;;
9117;SDS011;4594;50.994;7.126;2023-07-24T06:27:36;3.97;;;3.67;;
9117;SDS011;4594;50.994;7.126;2023-07-24T06:30:02;3.73;;;3.43;;
9117;SDS011;4594;50.994;7.126;2023-07-24T06:32:28;3.77;;;3.50;;
9117;SDS011;4594;50.994;7.126;2023-07-24T06:34:54;3.57;;;3.27;;
9117;SDS011;4594;50.994;7.126;2023-07-24T06:37:20;4.00;;;3.53;;
9117;SDS011;4594;50.994;7.126;2023-07-24T06:39:45;5.47;;;3.70;;
9117;SDS011;4594;50.994;7.126;2023-07-24T06:42:11;3.93;;;3.50;;
9117;SDS011;4594;50.994;7.126;2023-07-24T06:44:36;3.73;;;3.30;;
9117;SDS011;4594;50.994;7.126;2023-07-24T06:47:02;3.97;;;3.57;;
9117;SDS011;4594;50.994;7.126;2023-07-24T06:49:28;4.73;;;3.80;;
9117;SDS011;4594;50.994;7.126;2023-07-24T06:51:54;4.80;;;3.23;;
9117;SDS011;4594;50.994;7.126;2023-07-24T06:54:19;6.73;;;3.57;;
9117;SDS011;4594;50.994;7.126;2023-07-24T06:56:45;4.30;;;3.20;;
9117;SDS011;4594;50.994;7.126;2023-07-24T06:59:11;6.00;;;3.27;;
9117;SDS011;4594;50.994;7.126;2023-07-24T07:01:36;4.60;;;3.33;;
9117;SDS011;4594;50.994;7.126;2023-07-24T07:04:02;3.30;;;3.03;;
9117;SDS011;4594;50.994;7.126;2023-07-24T07:06:28;4.57;;;3.33;;
9117;SDS011;4594;50.994;7.126;2023-07-24T07:08:53;3.73;;;3.53;;
9117;SDS011;4594;50.994;7.126;2023-07-24T07:11:19;3.50;;;3.20;;
9117;SDS011;4594;50.994;7.126;2023-07-24T07:13:45;3.50;;;2.97;;
9117;SDS011;4594;50.994;7.126;2023-07-24T07:16:10;3.70;;;3.30;;
9117;SDS011;4594;50.994;7.126;2023-07-24T07:18:36;3.50;;;3.20;;
9117;SDS011;4594;50.994;7.126;2023-07-24T07:21:02;3.73;;;3.37;;
9117;SDS011;4594;50.994;7.126;2023-07-24T07:23:27;3.33;;;3.03;;
9117;SDS011;4594;50.994;7.126;2023-07-24T07:25:53;3.13;;;2.93;;
9117;SDS011;4594;50.994;7.126;2023-07-24T07:28:18;5.03;;;3.37;;
9117;SDS011;4594;50.994;7.126;2023-07-24T07:30:44;3.33;;;3.13;;
9117;SDS011;4594;50.994;7.126;2023-07-24T07:33:10;3.53;;;3.27;;
9117;SDS011;4594;50.994;7.126;2023-07-24T07:35:36;3.37;;;3.17;;
9117;SDS011;4594;50.994;7.126;2023-07-24T07:38:02;3.53;;;3.10;;
9117;SDS011;4594;50.994;7.126;2023-07-24T07:40:28;3.90;;;3.50;;
9117;SDS011;4594;50.994;7.126;2023-07-24T07:42:55;2.90;;;2.70;;
9117;SDS011;4594;50.994;7.126;2023-07-24T07:45:22;3.40;;;3.00;;
9117;SDS011;4594;50.994;7.126;2023-07-24T07:47:48;2.87;;;2.67;;
9117;SDS011;4594;50.994;7.126;2023-07-24T07:50:15;3.13;;;2.90;;
9117;SDS011;4594;50.994;7.126;2023-07-24T07:52:41;2.83;;;2.63;;
9117;SDS011;4594;50.994;7.126;2023-07-24T07:55:06;6.43;;;2.37;;
9117;SDS011;4594;50.994;7.126;2023-07-24T07:57:36;2.60;;;2.43;;
9117;SDS011;4594;50.994;7.126;2023-07-24T08:00:03;2.73;;;2.53;;
9117;SDS011;4594;50.994;7.126;2023-07-24T08:02:33;3.00;;;2.80;;
9117;SDS011;4594;50.994;7.126;2023-07-24T08:04:59;2.93;;;2.67;;
9117;SDS011;4594;50.994;7.126;2023-07-24T08:07:25;3.27;;;2.90;;
9117;SDS011;4594;50.994;7.126;2023-07-24T08:09:51;5.57;;;3.20;;
9117;SDS011;4594;50.994;7.126;2023-07-24T08:12:16;3.00;;;2.80;;
9117;SDS011;4594;50.994;7.126;2023-07-24T08:14:42;3.20;;;2.90;;
9117;SDS011;4594;50.994;7.126;2023-07-24T08:17:08;2.83;;;2.63;;
9117;SDS011;4594;50.994;7.126;2023-07-24T08:19:33;3.03;;;2.83;;
9117;SDS011;4594;50.994;7.126;2023-07-24T08:21:59;2.83;;;2.53;;
9117;SDS011;4594;50.994;7.126;2023-07-24T08:24:25;5.17;;;3.20;;
9117;SDS011;4594;50.994;7.126;2023-07-24T08:26:50;3.27;;;2.70;;
9117;SDS011;4594;50.994;7.126;2023-07-24T08:29:16;3.03;;;2.60;;
9117;SDS011;4594;50.994;7.126;2023-07-24T08:31:42;4.23;;;2.63;;
9117;SDS011;4594;50.994;7.126;2023-07-24T08:34:07;2.97;;;2.37;;
9117;SDS011;4594;50.994;7.126;2023-07-24T08:36:33;5.10;;;3.00;;
9117;SDS011;4594;50.994;7.126;2023-07-24T08:38:59;2.80;;;2.60;;
9117;SDS011;4594;50.994;7.126;2023-07-24T08:41:24;2.97;;;2.30;;
9117;SDS011;4594;50.994;7.126;2023-07-24T08:43:50;3.43;;;2.70;;
9117;SDS011;4594;50.994;7.126;2023-07-24T08:46:18;3.00;;;2.80;;
9117;SDS011;4594;50.994;7.126;2023-07-24T08:48:45;2.97;;;2.77;;
9117;SDS011;4594;50.994;7.126;2023-07-24T08:51:12;2.33;;;2.20;;
9117;SDS011;4594;50.994;7.126;2023-07-24T08:53:43;2.20;;;2.10;;
9117;SDS011;4594;50.994;7.126;2023-07-24T08:56:10;2.33;;;2.23;;
9117;SDS011;4594;50.994;7.126;2023-07-24T08:58:37;3.10;;;2.90;;
9117;SDS011;4594;50.994;7.126;2023-07-24T09:01:06;3.10;;;2.30;;
9117;SDS011;4594;50.994;7.126;2023-07-24T09:03:33;2.80;;;2.70;;
9117;SDS011;4594;50.994;7.126;2023-07-24T09:06:00;2.50;;;2.30;;
9117;SDS011;4594;50.994;7.126;2023-07-24T09:08:32;2.77;;;2.57;;
9117;SDS011;4594;50.994;7.126;2023-07-24T09:11:01;2.73;;;2.53;;
9117;SDS011;4594;50.994;7.126;2023-07-24T09:13:28;5.67;;;2.33;;
9117;SDS011;4594;50.994;7.126;2023-07-24T09:15:55;5.67;;;2.77;;
9117;SDS011;4594;50.994;7.126;2023-07-24T09:18:21;2.60;;;2.40;;
9117;SDS011;4594;50.994;7.126;2023-07-24T09:20:48;2.63;;;2.43;;
9117;SDS011;4594;50.994;7.126;2023-07-24T09:23:14;3.87;;;2.77;;
9117;SDS011;4594;50.994;7.126;2023-07-24T09:25:41;2.40;;;2.30;;
9117;SDS011;4594;50.994;7.126;2023-07-24T09:30:53;2.67;;;2.57;;
9117;SDS011;4594;50.994;7.126;2023-07-24T09:33:37;3.93;;;2.43;;
9117;SDS011;4594;50.994;7.126;2023-07-24T09:36:06;3.80;;;2.67;;
9117;SDS011;4594;50.994;7.126;2023-07-24T09:38:33;3.37;;;2.67;;
9117;SDS011;4594;50.994;7.126;2023-07-24T09:41:00;2.80;;;2.70;;
9117;SDS011;4594;50.994;7.126;2023-07-24T09:43:28;3.33;;;3.03;;
9117;SDS011;4594;50.994;7.126;2023-07-24T09:45:55;4.90;;;2.57;;
9117;SDS011;4594;50.994;7.126;2023-07-24T09:48:23;2.60;;;2.40;;
9117;SDS011;4594;50.994;7.126;2023-07-24T09:50:55;2.67;;;2.40;;
9117;SDS011;4594;50.994;7.126;2023-07-24T09:53:29;2.80;;;2.60;;
9117;SDS011;4594;50.994;7.126;2023-07-24T09:56:17;2.63;;;2.47;;
9117;SDS011;4594;50.994;7.126;2023-07-24T09:58:43;2.47;;;2.37;;
9117;SDS011;4594;50.994;7.126;2023-07-24T10:01:10;3.20;;;2.67;;
9117;SDS011;4594;50.994;7.126;2023-07-24T10:03:40;2.10;;;2.03;;
9117;SDS011;4594;50.994;7.126;2023-07-24T10:06:13;3.80;;;2.37;;
9117;SDS011;4594;50.994;7.126;2023-07-24T10:08:41;3.87;;;2.63;;
9117;SDS011;4594;50.994;7.126;2023-07-24T10:11:08;2.17;;;2.07;;
9117;SDS011;4594;50.994;7.126;2023-07-24T10:13:37;2.63;;;2.43;;
9117;SDS011;4594;50.994;7.126;2023-07-24T10:16:04;2.90;;;2.70;;
9117;SDS011;4594;50.994;7.126;2023-07-24T10:18:31;2.50;;;2.30;;
9117;SDS011;4594;50.994;7.126;2023-07-24T10:21:06;2.73;;;2.63;;
9117;SDS011;4594;50.994;7.126;2023-07-24T10:23:34;3.00;;;2.80;;
9117;SDS011;4594;50.994;7.126;2023-07-24T10:26:02;3.90;;;2.40;;
9117;SDS011;4594;50.994;7.126;2023-07-24T10:28:32;3.17;;;2.83;;
9117;SDS011;4594;50.994;7.126;2023-07-24T10:31:20;5.03;;;2.33;;
9117;SDS011;4594;50.994;7.126;2023-07-24T10:33:49;2.90;;;2.40;;
9117;SDS011;4594;50.994;7.126;2023-07-24T10:36:17;2.20;;;2.00;;
9117;SDS011;4594;50.994;7.126;2023-07-24T10:38:51;2.03;;;1.93;;
9117;SDS011;4594;50.994;7.126;2023-07-24T10:41:19;1.90;;;1.80;;
9117;SDS011;4594;50.994;7.126;2023-07-24T10:43:46;1.90;;;1.83;;
9117;SDS011;4594;50.994;7.126;2023-07-24T10:46:14;1.83;;;1.77;;
9117;SDS011;4594;50.994;7.126;2023-07-24T10:48:42;4.10;;;2.00;;
9117;SDS011;4594;50.994;7.126;2023-07-24T10:51:17;2.30;;;2.10;;
9117;SDS011;4594;50.994;7.126;2023-07-24T10:53:47;1.90;;;1.80;;
9117;SDS011;4594;50.994;7.126;2023-07-24T10:56:14;2.73;;;1.97;;
9117;SDS011;4594;50.994;7.126;2023-07-24T10:58:41;1.93;;;1.83;;
9117;SDS011;4594;50.994;7.126;2023-07-24T11:01:08;2.00;;;1.90;;
9117;SDS011;4594;50.994;7.126;2023-07-24T11:03:36;1.93;;;1.83;;
9117;SDS011;4594;50.994;7.126;2023-07-24T11:06:04;2.03;;;1.93;;
9117;SDS011;4594;50.994;7.126;2023-07-24T11:08:30;2.33;;;2.23;;
9117;SDS011;4594;50.994;7.126;2023-07-24T11:10:57;2.03;;;1.93;;
9117;SDS011;4594;50.994;7.126;2023-07-24T11:13:24;2.93;;;2.43;;
9117;SDS011;4594;50.994;7.126;2023-07-24T11:15:52;2.90;;;2.70;;
9117;SDS011;4594;50.994;7.126;2023-07-24T11:18:20;2.87;;;2.60;;
9117;SDS011;4594;50.994;7.126;2023-07-24T11:20:51;2.50;;;2.30;;
9117;SDS011;4594;50.994;7.126;2023-07-24T11:23:21;2.40;;;2.30;;
9117;SDS011;4594;50.994;7.126;2023-07-24T11:25:50;2.03;;;1.93;;
9117;SDS011;4594;50.994;7.126;2023-07-24T11:28:18;2.60;;;2.47;;
9117;SDS011;4594;50.994;7.126;2023-07-24T11:30:45;2.20;;;2.10;;
9117;SDS011;4594;50.994;7.126;2023-07-24T11:33:11;2.70;;;2.50;;
9117;SDS011;4594;50.994;7.126;2023-07-24T11:35:40;2.50;;;2.40;;
9117;SDS011;4594;50.994;7.126;2023-07-24T11:38:10;2.63;;;2.30;;
9117;SDS011;4594;50.994;7.126;2023-07-24T11:40:39;2.30;;;2.20;;
9117;SDS011;4594;50.994;7.126;2023-07-24T11:43:16;2.43;;;2.20;;
9117;SDS011;4594;50.994;7.126;2023-07-24T11:45:44;2.47;;;2.30;;
9117;SDS011;4594;50.994;7.126;2023-07-24T11:48:17;2.60;;;2.40;;
9117;SDS011;4594;50.994;7.126;2023-07-24T11:50:45;2.13;;;2.03;;
9117;SDS011;4594;50.994;7.126;2023-07-24T11:53:30;2.43;;;2.33;;
9117;SDS011;4594;50.994;7.126;2023-07-24T11:55:58;1.87;;;1.77;;
9117;SDS011;4594;50.994;7.126;2023-07-24T11:58:27;3.53;;;2.47;;
9117;SDS011;4594;50.994;7.126;2023-07-24T12:00:54;6.47;;;2.63;;
9117;SDS011;4594;50.994;7.126;2023-07-24T12:05:47;3.23;;;2.50;;
9117;SDS011;4594;50.994;7.126;2023-07-24T12:08:13;5.33;;;2.70;;
9117;SDS011;4594;50.994;7.126;2023-07-24T12:10:39;3.70;;;2.40;;
9117;SDS011;4594;50.994;7.126;2023-07-24T12:13:06;2.23;;;2.13;;
9117;SDS011;4594;50.994;7.126;2023-07-24T12:15:32;3.77;;;2.10;;
9117;SDS011;4594;50.994;7.126;2023-07-24T12:18:00;8.33;;;3.10;;
9117;SDS011;4594;50.994;7.126;2023-07-24T12:20:27;4.97;;;2.57;;
9117;SDS011;4594;50.994;7.126;2023-07-24T12:22:53;3.73;;;2.50;;
9117;SDS011;4594;50.994;7.126;2023-07-24T12:25:19;2.33;;;1.80;;
9117;SDS011;4594;50.994;7.126;2023-07-24T12:27:46;1.67;;;1.50;;
9117;SDS011;4594;50.994;7.126;2023-07-24T12:30:13;1.40;;;1.40;;
9117;SDS011;4594;50.994;7.126;2023-07-24T12:32:39;3.73;;;1.80;;
9117;SDS011;4594;50.994;7.126;2023-07-24T12:35:05;1.57;;;1.47;;
9117;SDS011;4594;50.994;7.126;2023-07-24T12:37:32;3.13;;;1.50;;
9117;SDS011;4594;50.994;7.126;2023-07-24T12:39:57;2.13;;;2.00;;
9117;SDS011;4594;50.994;7.126;2023-07-24T12:42:23;2.03;;;1.90;;
9117;SDS011;4594;50.994;7.126;2023-07-24T12:44:49;2.03;;;1.70;;
9117;SDS011;4594;50.994;7.126;2023-07-24T12:47:15;1.87;;;1.70;;
9117;SDS011;4594;50.994;7.126;2023-07-24T12:49:40;2.17;;;1.77;;
9117;SDS011;4594;50.994;7.126;2023-07-24T12:52:06;1.80;;;1.80;;
9117;SDS011;4594;50.994;7.126;2023-07-24T12:54:33;1.80;;;1.80;;
9117;SDS011;4594;50.994;7.126;2023-07-24T12:57:00;2.70;;;1.87;;
9117;SDS011;4594;50.994;7.126;2023-07-24T12:59:27;2.27;;;2.07;;
9117;SDS011;4594;50.994;7.126;2023-07-24T13:01:53;3.13;;;1.70;;
9117;SDS011;4594;50.994;7.126;2023-07-24T13:04:19;1.70;;;1.60;;
9117;SDS011;4594;50.994;7.126;2023-07-24T13:06:45;1.90;;;1.80;;
9117;SDS011;4594;50.994;7.126;2023-07-24T13:09:11;5.90;;;2.03;;
9117;SDS011;4594;50.994;7.126;2023-07-24T13:11:36;1.77;;;1.67;;
9117;SDS011;4594;50.994;7.126;2023-07-24T13:14:02;2.00;;;1.90;;
9117;SDS011;4594;50.994;7.126;2023-07-24T13:16:28;2.10;;;2.00;;
9117;SDS011;4594;50.994;7.126;2023-07-24T13:18:54;2.13;;;2.03;;
9117;SDS011;4594;50.994;7.126;2023-07-24T13:21:19;2.30;;;2.17;;
9117;SDS011;4594;50.994;7.126;2023-07-24T13:23:45;2.30;;;2.10;;
9117;SDS011;4594;50.994;7.126;2023-07-24T13:26:11;4.33;;;2.07;;
9117;SDS011;4594;50.994;7.126;2023-07-24T13:28:38;2.20;;;2.00;;
9117;SDS011;4594;50.994;7.126;2023-07-24T13:31:11;2.03;;;1.93;;
9117;SDS011;4594;50.994;7.126;2023-07-24T13:33:45;1.97;;;1.87;;
9117;SDS011;4594;50.994;7.126;2023-07-24T13:36:12;2.10;;;2.00;;
9117;SDS011;4594;50.994;7.126;2023-07-24T13:38:38;1.70;;;1.60;;
9117;SDS011;4594;50.994;7.126;2023-07-24T13:41:06;1.60;;;1.50;;
9117;SDS011;4594;50.994;7.126;2023-07-24T13:43:33;1.80;;;1.70;;
9117;SDS011;4594;50.994;7.126;2023-07-24T13:45:59;1.60;;;1.60;;
9117;SDS011;4594;50.994;7.126;2023-07-24T13:48:27;1.50;;;1.50;;
9117;SDS011;4594;50.994;7.126;2023-07-24T13:50:53;1.80;;;1.70;;
9117;SDS011;4594;50.994;7.126;2023-07-24T13:53:19;2.17;;;1.50;;
9117;SDS011;4594;50.994;7.126;2023-07-24T13:55:46;1.80;;;1.70;;
9117;SDS011;4594;50.994;7.126;2023-07-24T13:58:12;1.60;;;1.60;;
9117;SDS011;4594;50.994;7.126;2023-07-24T14:00:38;1.60;;;1.60;;
9117;SDS011;4594;50.994;7.126;2023-07-24T14:03:03;1.77;;;1.77;;
9117;SDS011;4594;50.994;7.126;2023-07-24T14:05:29;1.70;;;1.70;;
9117;SDS011;4594;50.994;7.126;2023-07-24T14:07:55;1.80;;;1.73;;
9117;SDS011;4594;50.994;7.126;2023-07-24T14:10:21;1.73;;;1.63;;
9117;SDS011;4594;50.994;7.126;2023-07-24T14:12:46;1.80;;;1.70;;
9117;SDS011;4594;50.994;7.126;2023-07-24T14:15:12;1.73;;;1.60;;
9117;SDS011;4594;50.994;7.126;2023-07-24T14:17:38;1.83;;;1.73;;
9117;SDS011;4594;50.994;7.126;2023-07-24T14:20:05;2.00;;;1.80;;
9117;SDS011;4594;50.994;7.126;2023-07-24T14:22:31;1.90;;;1.80;;
9117;SDS011;4594;50.994;7.126;2023-07-24T14:24:57;1.80;;;1.70;;
9117;SDS011;4594;50.994;7.126;2023-07-24T14:27:23;3.63;;;1.80;;
9117;SDS011;4594;50.994;7.126;2023-07-24T14:29:49;1.80;;;1.70;;
9117;SDS011;4594;50.994;7.126;2023-07-24T14:32:14;1.97;;;1.87;;
9117;SDS011;4594;50.994;7.126;2023-07-24T14:34:40;3.40;;;1.80;;
9117;SDS011;4594;50.994;7.126;2023-07-24T14:37:07;3.53;;;2.17;;
9117;SDS011;4594;50.994;7.126;2023-07-24T14:39:33;2.03;;;1.87;;
9117;SDS011;4594;50.994;7.126;2023-07-24T14:41:59;2.10;;;2.00;;
9117;SDS011;4594;50.994;7.126;2023-07-24T14:44:25;2.30;;;2.20;;
9117;SDS011;4594;50.994;7.126;2023-07-24T14:46:51;2.40;;;2.20;;
9117;SDS011;4594;50.994;7.126;2023-07-24T14:49:17;2.97;;;2.60;;
9117;SDS011;4594;50.994;7.126;2023-07-24T14:51:42;7.13;;;2.40;;
9117;SDS011;4594;50.994;7.126;2023-07-24T14:54:08;2.50;;;2.33;;
9117;SDS011;4594;50.994;7.126;2023-07-24T14:56:34;2.03;;;1.93;;
9117;SDS011;4594;50.994;7.126;2023-07-24T14:59:00;2.43;;;2.33;;
9117;SDS011;4594;50.994;7.126;2023-07-24T15:01:26;3.63;;;2.70;;
9117;SDS011;4594;50.994;7.126;2023-07-24T15:03:53;2.30;;;2.10;;
9117;SDS011;4594;50.994;7.126;2023-07-24T15:06:21;2.10;;;2.00;;
9117;SDS011;4594;50.994;7.126;2023-07-24T15:08:47;2.00;;;1.90;;
9117;SDS011;4594;50.994;7.126;2023-07-24T15:11:18;2.00;;;1.90;;
9117;SDS011;4594;50.994;7.126;2023-07-24T15:13:45;3.70;;;1.80;;
9117;SDS011;4594;50.994;7.126;2023-07-24T15:16:10;1.87;;;1.70;;
9117;SDS011;4594;50.994;7.126;2023-07-24T15:18:36;2.03;;;1.83;;
9117;SDS011;4594;50.994;7.126;2023-07-24T15:21:02;2.20;;;2.00;;
9117;SDS011;4594;50.994;7.126;2023-07-24T15:23:27;2.10;;;1.90;;
9117;SDS011;4594;50.994;7.126;2023-07-24T15:25:53;2.87;;;2.20;;